sensor_id;sensor_type;location;lat;lon;timestamp;P1;durP1;ratioP1;P2;durP2;ratioP2
43986;SDS011;29650;47.378;8.300;2023-02-18T00:00:05;7.65;;;3.92;;
43986;SDS011;29650;47.378;8.300;2023-02-18T00:02:34;8.25;;;4.57;;
43986;SDS011;29650;47.378;8.300;2023-02-18T00:05:01;8.10;;;3.90;;
43986;SDS011;29650;47.378;8.300;2023-02-18T00:07:28;4.97;;;3.88;;
43986;SDS011;29650;47.378;8.300;2023-02-18T00:09:59;10.18;;;3.97;;
43986;SDS011;29650;47.378;8.300;2023-02-18T00:12:27;5.80;;;3.72;;
43986;SDS011;29650;47.378;8.300;2023-02-18T00:14:56;6.68;;;3.85;;
43986;SDS011;29650;47.378;8.300;2023-02-18T00:17:23;5.22;;;3.22;;
43986;SDS011;29650;47.378;8.300;2023-02-18T00:19:50;5.35;;;3.28;;
43986;SDS011;29650;47.378;8.300;2023-02-18T00:22:17;6.43;;;4.07;;
43986;SDS011;29650;47.378;8.300;2023-02-18T00:24:44;6.38;;;3.35;;
43986;SDS011;29650;47.378;8.300;2023-02-18T00:27:11;8.02;;;3.50;;
43986;SDS011;29650;47.378;8.300;2023-02-18T00:29:39;12.15;;;3.67;;
43986;SDS011;29650;47.378;8.300;2023-02-18T00:32:06;8.27;;;3.87;;
43986;SDS011;29650;47.378;8.300;2023-02-18T00:34:33;5.72;;;3.20;;
43986;SDS011;29650;47.378;8.300;2023-02-18T00:37:00;5.10;;;3.45;;
43986;SDS011;29650;47.378;8.300;2023-02-18T00:39:27;5.88;;;3.40;;
43986;SDS011;29650;47.378;8.300;2023-02-18T00:41:54;6.05;;;3.67;;
43986;SDS011;29650;47.378;8.300;2023-02-18T00:44:21;7.85;;;4.10;;
43986;SDS011;29650;47.378;8.300;2023-02-18T00:46:50;7.13;;;4.05;;
43986;SDS011;29650;47.378;8.300;2023-02-18T00:49:17;3.97;;;3.00;;
43986;SDS011;29650;47.378;8.300;2023-02-18T00:51:44;6.47;;;3.72;;
43986;SDS011;29650;47.378;8.300;2023-02-18T00:54:11;12.82;;;3.50;;
43986;SDS011;29650;47.378;8.300;2023-02-18T00:56:38;5.10;;;3.08;;
43986;SDS011;29650;47.378;8.300;2023-02-18T00:59:05;6.50;;;3.50;;
43986;SDS011;29650;47.378;8.300;2023-02-18T01:01:33;5.22;;;3.35;;
43986;SDS011;29650;47.378;8.300;2023-02-18T01:04:04;5.53;;;3.47;;
43986;SDS011;29650;47.378;8.300;2023-02-18T01:06:34;10.15;;;3.58;;
43986;SDS011;29650;47.378;8.300;2023-02-18T01:09:01;5.70;;;3.67;;
43986;SDS011;29650;47.378;8.300;2023-02-18T01:11:28;10.85;;;3.45;;
43986;SDS011;29650;47.378;8.300;2023-02-18T01:13:55;8.65;;;3.30;;
43986;SDS011;29650;47.378;8.300;2023-02-18T01:16:22;6.95;;;3.10;;
43986;SDS011;29650;47.378;8.300;2023-02-18T01:18:49;5.15;;;3.50;;
43986;SDS011;29650;47.378;8.300;2023-02-18T01:21:21;6.53;;;3.45;;
43986;SDS011;29650;47.378;8.300;2023-02-18T01:23:48;9.13;;;3.47;;
43986;SDS011;29650;47.378;8.300;2023-02-18T01:26:15;4.35;;;3.25;;
43986;SDS011;29650;47.378;8.300;2023-02-18T01:28:42;8.38;;;3.25;;
43986;SDS011;29650;47.378;8.300;2023-02-18T01:31:10;7.80;;;3.20;;
43986;SDS011;29650;47.378;8.300;2023-02-18T01:36:06;6.60;;;3.42;;
43986;SDS011;29650;47.378;8.300;2023-02-18T01:38:35;5.95;;;3.97;;
43986;SDS011;29650;47.378;8.300;2023-02-18T01:41:02;7.30;;;3.55;;
43986;SDS011;29650;47.378;8.300;2023-02-18T01:43:30;7.18;;;3.42;;
43986;SDS011;29650;47.378;8.300;2023-02-18T01:45:59;6.25;;;3.47;;
43986;SDS011;29650;47.378;8.300;2023-02-18T01:48:38;6.75;;;3.05;;
43986;SDS011;29650;47.378;8.300;2023-02-18T01:51:10;4.95;;;3.35;;
43986;SDS011;29650;47.378;8.300;2023-02-18T01:53:44;9.00;;;3.58;;
43986;SDS011;29650;47.378;8.300;2023-02-18T01:56:17;5.85;;;3.10;;
43986;SDS011;29650;47.378;8.300;2023-02-18T01:58:52;10.32;;;3.92;;
43986;SDS011;29650;47.378;8.300;2023-02-18T02:01:22;5.82;;;3.65;;
43986;SDS011;29650;47.378;8.300;2023-02-18T02:03:58;6.15;;;3.55;;
43986;SDS011;29650;47.378;8.300;2023-02-18T02:06:25;4.32;;;3.15;;
43986;SDS011;29650;47.378;8.300;2023-02-18T02:08:54;4.53;;;3.45;;
43986;SDS011;29650;47.378;8.300;2023-02-18T02:11:29;5.93;;;3.00;;
43986;SDS011;29650;47.378;8.300;2023-02-18T02:14:21;6.05;;;4.45;;
43986;SDS011;29650;47.378;8.300;2023-02-18T02:16:57;8.70;;;3.85;;
43986;SDS011;29650;47.378;8.300;2023-02-18T02:22:39;8.07;;;3.10;;
43986;SDS011;29650;47.378;8.300;2023-02-18T02:25:37;5.78;;;3.33;;
43986;SDS011;29650;47.378;8.300;2023-02-18T02:28:33;7.20;;;3.22;;
43986;SDS011;29650;47.378;8.300;2023-02-18T02:31:28;4.07;;;3.22;;
43986;SDS011;29650;47.378;8.300;2023-02-18T02:37:01;8.15;;;2.92;;
43986;SDS011;29650;47.378;8.300;2023-02-18T02:39:37;7.35;;;3.60;;
43986;SDS011;29650;47.378;8.300;2023-02-18T02:42:14;9.63;;;3.33;;
43986;SDS011;29650;47.378;8.300;2023-02-18T02:44:50;8.32;;;3.58;;
43986;SDS011;29650;47.378;8.300;2023-02-18T02:47:25;8.63;;;3.55;;
43986;SDS011;29650;47.378;8.300;2023-02-18T02:49:59;8.68;;;4.07;;
43986;SDS011;29650;47.378;8.300;2023-02-18T02:52:30;6.65;;;3.42;;
43986;SDS011;29650;47.378;8.300;2023-02-18T02:55:03;7.75;;;3.78;;
43986;SDS011;29650;47.378;8.300;2023-02-18T02:57:41;6.10;;;3.55;;
43986;SDS011;29650;47.378;8.300;2023-02-18T03:00:17;4.65;;;3.10;;
43986;SDS011;29650;47.378;8.300;2023-02-18T03:02:51;4.65;;;3.20;;
43986;SDS011;29650;47.378;8.300;2023-02-18T03:05:51;8.25;;;3.22;;
43986;SDS011;29650;47.378;8.300;2023-02-18T03:08:38;12.15;;;3.75;;
43986;SDS011;29650;47.378;8.300;2023-02-18T03:11:11;4.57;;;2.92;;
43986;SDS011;29650;47.378;8.300;2023-02-18T03:13:48;6.22;;;3.33;;
43986;SDS011;29650;47.378;8.300;2023-02-18T03:16:22;9.23;;;4.03;;
43986;SDS011;29650;47.378;8.300;2023-02-18T03:18:59;4.95;;;3.00;;
43986;SDS011;29650;47.378;8.300;2023-02-18T03:21:34;5.10;;;2.90;;
43986;SDS011;29650;47.378;8.300;2023-02-18T03:24:07;4.65;;;2.92;;
43986;SDS011;29650;47.378;8.300;2023-02-18T03:26:41;5.10;;;2.70;;
43986;SDS011;29650;47.378;8.300;2023-02-18T03:29:13;5.68;;;3.05;;
43986;SDS011;29650;47.378;8.300;2023-02-18T03:31:43;4.47;;;2.65;;
43986;SDS011;29650;47.378;8.300;2023-02-18T03:34:14;5.93;;;3.13;;
43986;SDS011;29650;47.378;8.300;2023-02-18T03:36:47;7.43;;;3.42;;
43986;SDS011;29650;47.378;8.300;2023-02-18T03:39:15;6.97;;;2.97;;
43986;SDS011;29650;47.378;8.300;2023-02-18T03:41:44;6.10;;;3.63;;
43986;SDS011;29650;47.378;8.300;2023-02-18T03:44:12;9.40;;;3.55;;
43986;SDS011;29650;47.378;8.300;2023-02-18T03:46:41;7.55;;;2.95;;
43986;SDS011;29650;47.378;8.300;2023-02-18T03:49:09;4.85;;;2.95;;
43986;SDS011;29650;47.378;8.300;2023-02-18T03:51:37;7.18;;;3.03;;
43986;SDS011;29650;47.378;8.300;2023-02-18T03:54:06;3.85;;;2.50;;
43986;SDS011;29650;47.378;8.300;2023-02-18T03:56:33;4.93;;;3.38;;
43986;SDS011;29650;47.378;8.300;2023-02-18T03:59:00;5.00;;;3.15;;
43986;SDS011;29650;47.378;8.300;2023-02-18T04:01:28;8.02;;;3.58;;
43986;SDS011;29650;47.378;8.300;2023-02-18T04:03:55;9.70;;;3.47;;
43986;SDS011;29650;47.378;8.300;2023-02-18T04:06:22;8.57;;;2.75;;
43986;SDS011;29650;47.378;8.300;2023-02-18T04:08:50;5.13;;;3.03;;
43986;SDS011;29650;47.378;8.300;2023-02-18T04:11:18;6.20;;;3.65;;
43986;SDS011;29650;47.378;8.300;2023-02-18T04:13:45;4.23;;;3.50;;
43986;SDS011;29650;47.378;8.300;2023-02-18T04:16:12;6.32;;;3.47;;
43986;SDS011;29650;47.378;8.300;2023-02-18T04:18:40;7.07;;;3.63;;
43986;SDS011;29650;47.378;8.300;2023-02-18T04:21:07;6.70;;;3.45;;
43986;SDS011;29650;47.378;8.300;2023-02-18T04:23:35;6.55;;;3.78;;
43986;SDS011;29650;47.378;8.300;2023-02-18T04:26:02;6.43;;;3.35;;
43986;SDS011;29650;47.378;8.300;2023-02-18T04:28:33;5.32;;;3.08;;
43986;SDS011;29650;47.378;8.300;2023-02-18T04:31:09;5.10;;;3.00;;
43986;SDS011;29650;47.378;8.300;2023-02-18T04:33:37;4.32;;;2.92;;
43986;SDS011;29650;47.378;8.300;2023-02-18T04:36:04;3.92;;;2.67;;
43986;SDS011;29650;47.378;8.300;2023-02-18T04:38:32;5.40;;;3.45;;
43986;SDS011;29650;47.378;8.300;2023-02-18T04:41:00;12.70;;;3.25;;
43986;SDS011;29650;47.378;8.300;2023-02-18T04:43:27;5.82;;;3.45;;
43986;SDS011;29650;47.378;8.300;2023-02-18T04:45:57;4.45;;;2.55;;
43986;SDS011;29650;47.378;8.300;2023-02-18T04:48:27;4.95;;;3.08;;
43986;SDS011;29650;47.378;8.300;2023-02-18T04:50:54;5.75;;;3.30;;
43986;SDS011;29650;47.378;8.300;2023-02-18T04:53:24;4.82;;;3.00;;
43986;SDS011;29650;47.378;8.300;2023-02-18T04:55:52;7.07;;;3.35;;
43986;SDS011;29650;47.378;8.300;2023-02-18T04:58:21;7.03;;;3.13;;
43986;SDS011;29650;47.378;8.300;2023-02-18T05:00:50;6.75;;;3.67;;
43986;SDS011;29650;47.378;8.300;2023-02-18T05:05:44;6.85;;;2.90;;
43986;SDS011;29650;47.378;8.300;2023-02-18T05:08:11;6.25;;;3.47;;
43986;SDS011;29650;47.378;8.300;2023-02-18T05:10:40;6.47;;;3.43;;
43986;SDS011;29650;47.378;8.300;2023-02-18T05:13:07;6.90;;;3.75;;
43986;SDS011;29650;47.378;8.300;2023-02-18T05:15:35;5.50;;;3.45;;
43986;SDS011;29650;47.378;8.300;2023-02-18T05:18:04;5.10;;;3.55;;
43986;SDS011;29650;47.378;8.300;2023-02-18T05:20:34;6.03;;;3.38;;
43986;SDS011;29650;47.378;8.300;2023-02-18T05:23:02;6.05;;;3.15;;
43986;SDS011;29650;47.378;8.300;2023-02-18T05:25:39;14.70;;;3.65;;
43986;SDS011;29650;47.378;8.300;2023-02-18T05:28:20;7.25;;;3.92;;
43986;SDS011;29650;47.378;8.300;2023-02-18T05:30:47;6.55;;;3.60;;
43986;SDS011;29650;47.378;8.300;2023-02-18T05:33:15;6.25;;;3.22;;
43986;SDS011;29650;47.378;8.300;2023-02-18T05:38:10;6.15;;;3.47;;
43986;SDS011;29650;47.378;8.300;2023-02-18T05:40:37;7.47;;;3.65;;
43986;SDS011;29650;47.378;8.300;2023-02-18T05:43:08;9.52;;;4.50;;
43986;SDS011;29650;47.378;8.300;2023-02-18T05:45:35;8.18;;;4.45;;
43986;SDS011;29650;47.378;8.300;2023-02-18T05:48:04;6.88;;;4.63;;
43986;SDS011;29650;47.378;8.300;2023-02-18T05:50:39;6.45;;;4.15;;
43986;SDS011;29650;47.378;8.300;2023-02-18T05:53:06;12.27;;;4.47;;
43986;SDS011;29650;47.378;8.300;2023-02-18T05:55:36;8.77;;;5.28;;
43986;SDS011;29650;47.378;8.300;2023-02-18T05:58:12;12.68;;;4.78;;
43986;SDS011;29650;47.378;8.300;2023-02-18T06:00:41;11.07;;;4.55;;
43986;SDS011;29650;47.378;8.300;2023-02-18T06:03:09;7.28;;;4.30;;
43986;SDS011;29650;47.378;8.300;2023-02-18T06:05:44;6.10;;;4.18;;
43986;SDS011;29650;47.378;8.300;2023-02-18T06:08:14;11.55;;;5.05;;
43986;SDS011;29650;47.378;8.300;2023-02-18T06:10:50;7.35;;;4.45;;
43986;SDS011;29650;47.378;8.300;2023-02-18T06:13:17;12.40;;;4.68;;
43986;SDS011;29650;47.378;8.300;2023-02-18T06:15:44;7.60;;;4.47;;
43986;SDS011;29650;47.378;8.300;2023-02-18T06:18:12;7.70;;;5.55;;
43986;SDS011;29650;47.378;8.300;2023-02-18T06:20:54;15.20;;;5.22;;
43986;SDS011;29650;47.378;8.300;2023-02-18T06:23:23;6.80;;;4.72;;
43986;SDS011;29650;47.378;8.300;2023-02-18T06:25:51;7.03;;;4.97;;
43986;SDS011;29650;47.378;8.300;2023-02-18T06:28:20;10.10;;;5.80;;
43986;SDS011;29650;47.378;8.300;2023-02-18T06:30:47;12.77;;;6.85;;
43986;SDS011;29650;47.378;8.300;2023-02-18T06:33:16;9.85;;;5.53;;
43986;SDS011;29650;47.378;8.300;2023-02-18T06:35:52;11.05;;;6.22;;
43986;SDS011;29650;47.378;8.300;2023-02-18T06:38:21;10.88;;;6.00;;
43986;SDS011;29650;47.378;8.300;2023-02-18T06:40:48;7.43;;;5.15;;
43986;SDS011;29650;47.378;8.300;2023-02-18T06:43:16;9.73;;;5.38;;
43986;SDS011;29650;47.378;8.300;2023-02-18T06:45:43;8.73;;;5.18;;
43986;SDS011;29650;47.378;8.300;2023-02-18T06:48:11;7.00;;;4.85;;
43986;SDS011;29650;47.378;8.300;2023-02-18T06:51:07;13.20;;;4.75;;
43986;SDS011;29650;47.378;8.300;2023-02-18T06:53:34;10.07;;;5.10;;
43986;SDS011;29650;47.378;8.300;2023-02-18T06:56:12;10.00;;;5.30;;
43986;SDS011;29650;47.378;8.300;2023-02-18T07:01:08;12.10;;;7.07;;
43986;SDS011;29650;47.378;8.300;2023-02-18T07:03:38;9.27;;;5.43;;
43986;SDS011;29650;47.378;8.300;2023-02-18T07:06:07;9.35;;;6.10;;
43986;SDS011;29650;47.378;8.300;2023-02-18T07:08:34;9.73;;;4.75;;
43986;SDS011;29650;47.378;8.300;2023-02-18T07:11:01;9.43;;;5.50;;
43986;SDS011;29650;47.378;8.300;2023-02-18T07:13:29;13.02;;;5.82;;
43986;SDS011;29650;47.378;8.300;2023-02-18T07:15:56;10.02;;;4.70;;
43986;SDS011;29650;47.378;8.300;2023-02-18T07:18:23;7.07;;;3.92;;
43986;SDS011;29650;47.378;8.300;2023-02-18T07:20:50;7.68;;;4.93;;
43986;SDS011;29650;47.378;8.300;2023-02-18T07:23:22;15.73;;;7.10;;
43986;SDS011;29650;47.378;8.300;2023-02-18T07:25:49;9.20;;;5.35;;
43986;SDS011;29650;47.378;8.300;2023-02-18T07:28:24;14.00;;;5.43;;
43986;SDS011;29650;47.378;8.300;2023-02-18T07:30:52;8.88;;;5.10;;
43986;SDS011;29650;47.378;8.300;2023-02-18T07:33:19;10.02;;;4.60;;
43986;SDS011;29650;47.378;8.300;2023-02-18T07:35:46;7.28;;;4.38;;
43986;SDS011;29650;47.378;8.300;2023-02-18T07:38:22;13.93;;;4.95;;
43986;SDS011;29650;47.378;8.300;2023-02-18T07:40:50;7.82;;;4.75;;
43986;SDS011;29650;47.378;8.300;2023-02-18T07:43:17;7.38;;;4.70;;
43986;SDS011;29650;47.378;8.300;2023-02-18T07:45:44;8.90;;;5.05;;
43986;SDS011;29650;47.378;8.300;2023-02-18T07:48:13;7.63;;;4.88;;
43986;SDS011;29650;47.378;8.300;2023-02-18T07:50:41;11.48;;;5.93;;
43986;SDS011;29650;47.378;8.300;2023-02-18T07:53:10;7.95;;;4.80;;
43986;SDS011;29650;47.378;8.300;2023-02-18T07:55:39;9.93;;;5.63;;
43986;SDS011;29650;47.378;8.300;2023-02-18T07:58:23;8.30;;;5.35;;
43986;SDS011;29650;47.378;8.300;2023-02-18T08:00:52;6.53;;;4.97;;
43986;SDS011;29650;47.378;8.300;2023-02-18T08:03:20;12.23;;;5.75;;
43986;SDS011;29650;47.378;8.300;2023-02-18T08:08:17;8.18;;;5.22;;
43986;SDS011;29650;47.378;8.300;2023-02-18T08:10:47;13.65;;;5.10;;
43986;SDS011;29650;47.378;8.300;2023-02-18T08:13:15;11.55;;;5.55;;
43986;SDS011;29650;47.378;8.300;2023-02-18T08:15:42;7.07;;;4.75;;
43986;SDS011;29650;47.378;8.300;2023-02-18T08:18:12;6.55;;;4.80;;
43986;SDS011;29650;47.378;8.300;2023-02-18T08:20:41;8.02;;;4.40;;
43986;SDS011;29650;47.378;8.300;2023-02-18T08:23:08;15.70;;;4.28;;
43986;SDS011;29650;47.378;8.300;2023-02-18T08:25:36;6.75;;;4.20;;
43986;SDS011;29650;47.378;8.300;2023-02-18T08:28:04;6.72;;;4.20;;
43986;SDS011;29650;47.378;8.300;2023-02-18T08:30:32;7.75;;;4.78;;
43986;SDS011;29650;47.378;8.300;2023-02-18T08:32:59;9.45;;;4.93;;
43986;SDS011;29650;47.378;8.300;2023-02-18T08:35:26;7.53;;;3.55;;
43986;SDS011;29650;47.378;8.300;2023-02-18T08:37:53;9.55;;;4.50;;
43986;SDS011;29650;47.378;8.300;2023-02-18T08:40:20;7.25;;;4.03;;
43986;SDS011;29650;47.378;8.300;2023-02-18T08:42:47;6.30;;;4.03;;
43986;SDS011;29650;47.378;8.300;2023-02-18T08:45:15;7.13;;;4.10;;
43986;SDS011;29650;47.378;8.300;2023-02-18T08:47:42;5.93;;;3.27;;
43986;SDS011;29650;47.378;8.300;2023-02-18T08:50:09;8.48;;;4.00;;
43986;SDS011;29650;47.378;8.300;2023-02-18T08:52:37;7.65;;;3.95;;
43986;SDS011;29650;47.378;8.300;2023-02-18T08:55:04;7.50;;;3.47;;
43986;SDS011;29650;47.378;8.300;2023-02-18T08:57:31;6.20;;;3.42;;
43986;SDS011;29650;47.378;8.300;2023-02-18T08:59:58;6.60;;;3.10;;
43986;SDS011;29650;47.378;8.300;2023-02-18T09:02:27;5.57;;;3.40;;
43986;SDS011;29650;47.378;8.300;2023-02-18T09:04:54;5.03;;;3.03;;
43986;SDS011;29650;47.378;8.300;2023-02-18T09:07:21;6.65;;;3.13;;
43986;SDS011;29650;47.378;8.300;2023-02-18T09:09:48;11.50;;;3.40;;
43986;SDS011;29650;47.378;8.300;2023-02-18T09:12:15;9.27;;;3.42;;
43986;SDS011;29650;47.378;8.300;2023-02-18T09:14:41;7.88;;;3.75;;
43986;SDS011;29650;47.378;8.300;2023-02-18T09:17:08;7.93;;;3.33;;
43986;SDS011;29650;47.378;8.300;2023-02-18T09:19:37;5.13;;;3.08;;
43986;SDS011;29650;47.378;8.300;2023-02-18T09:22:04;3.67;;;2.30;;
43986;SDS011;29650;47.378;8.300;2023-02-18T09:24:35;10.43;;;2.30;;
43986;SDS011;29650;47.378;8.300;2023-02-18T09:27:03;4.47;;;2.40;;
43986;SDS011;29650;47.378;8.300;2023-02-18T09:29:30;6.32;;;2.88;;
43986;SDS011;29650;47.378;8.300;2023-02-18T09:31:58;6.10;;;2.42;;
43986;SDS011;29650;47.378;8.300;2023-02-18T09:34:25;3.63;;;2.30;;
43986;SDS011;29650;47.378;8.300;2023-02-18T09:36:54;4.75;;;1.67;;
43986;SDS011;29650;47.378;8.300;2023-02-18T09:39:20;4.55;;;2.03;;
43986;SDS011;29650;47.378;8.300;2023-02-18T09:41:48;4.28;;;2.47;;
43986;SDS011;29650;47.378;8.300;2023-02-18T09:44:18;3.97;;;2.17;;
43986;SDS011;29650;47.378;8.300;2023-02-18T09:46:50;3.45;;;1.65;;
43986;SDS011;29650;47.378;8.300;2023-02-18T09:49:20;2.47;;;1.63;;
43986;SDS011;29650;47.378;8.300;2023-02-18T09:51:51;4.30;;;2.03;;
43986;SDS011;29650;47.378;8.300;2023-02-18T09:54:21;2.00;;;1.48;;
43986;SDS011;29650;47.378;8.300;2023-02-18T09:56:48;3.58;;;1.48;;
43986;SDS011;29650;47.378;8.300;2023-02-18T09:59:18;4.95;;;1.83;;
43986;SDS011;29650;47.378;8.300;2023-02-18T10:01:48;5.45;;;1.95;;
43986;SDS011;29650;47.378;8.300;2023-02-18T10:04:19;5.20;;;2.00;;
43986;SDS011;29650;47.378;8.300;2023-02-18T10:06:50;3.70;;;2.10;;
43986;SDS011;29650;47.378;8.300;2023-02-18T10:09:20;4.43;;;1.83;;
43986;SDS011;29650;47.378;8.300;2023-02-18T10:11:51;4.50;;;2.33;;
43986;SDS011;29650;47.378;8.300;2023-02-18T10:14:22;5.78;;;1.92;;
43986;SDS011;29650;47.378;8.300;2023-02-18T10:16:51;3.90;;;1.50;;
43986;SDS011;29650;47.378;8.300;2023-02-18T10:19:22;2.30;;;1.55;;
43986;SDS011;29650;47.378;8.300;2023-02-18T10:21:54;1.80;;;1.30;;
43986;SDS011;29650;47.378;8.300;2023-02-18T10:24:28;3.25;;;1.55;;
43986;SDS011;29650;47.378;8.300;2023-02-18T10:26:57;6.30;;;1.88;;
43986;SDS011;29650;47.378;8.300;2023-02-18T10:29:25;2.05;;;1.35;;
43986;SDS011;29650;47.378;8.300;2023-02-18T10:31:54;5.78;;;2.58;;
43986;SDS011;29650;47.378;8.300;2023-02-18T10:37:06;2.63;;;1.38;;
43986;SDS011;29650;47.378;8.300;2023-02-18T10:39:49;2.08;;;1.50;;
43986;SDS011;29650;47.378;8.300;2023-02-18T10:42:29;2.08;;;1.40;;
43986;SDS011;29650;47.378;8.300;2023-02-18T10:45:07;2.40;;;1.55;;
43986;SDS011;29650;47.378;8.300;2023-02-18T10:47:49;3.10;;;1.63;;
43986;SDS011;29650;47.378;8.300;2023-02-18T10:50:28;5.07;;;1.40;;
43986;SDS011;29650;47.378;8.300;2023-02-18T10:53:07;3.53;;;1.70;;
43986;SDS011;29650;47.378;8.300;2023-02-18T10:55:40;2.47;;;1.45;;
43986;SDS011;29650;47.378;8.300;2023-02-18T11:01:00;2.30;;;1.70;;
43986;SDS011;29650;47.378;8.300;2023-02-18T11:03:39;1.95;;;1.08;;
43986;SDS011;29650;47.378;8.300;2023-02-18T11:06:14;3.42;;;1.33;;
43986;SDS011;29650;47.378;8.300;2023-02-18T11:08:46;3.30;;;1.50;;
43986;SDS011;29650;47.378;8.300;2023-02-18T11:11:16;5.28;;;1.58;;
43986;SDS011;29650;47.378;8.300;2023-02-18T11:13:51;3.45;;;1.45;;
43986;SDS011;29650;47.378;8.300;2023-02-18T11:16:20;1.90;;;1.48;;
43986;SDS011;29650;47.378;8.300;2023-02-18T11:18:48;2.55;;;1.80;;
43986;SDS011;29650;47.378;8.300;2023-02-18T11:21:20;1.52;;;1.05;;
43986;SDS011;29650;47.378;8.300;2023-02-18T11:23:52;2.97;;;1.55;;
43986;SDS011;29650;47.378;8.300;2023-02-18T11:26:23;1.55;;;1.30;;
43986;SDS011;29650;47.378;8.300;2023-02-18T11:28:55;1.98;;;1.17;;
43986;SDS011;29650;47.378;8.300;2023-02-18T11:31:26;6.00;;;1.40;;
43986;SDS011;29650;47.378;8.300;2023-02-18T11:34:04;2.20;;;1.25;;
43986;SDS011;29650;47.378;8.300;2023-02-18T11:36:36;1.77;;;1.40;;
43986;SDS011;29650;47.378;8.300;2023-02-18T11:39:04;2.10;;;1.27;;
43986;SDS011;29650;47.378;8.300;2023-02-18T11:41:45;3.10;;;1.57;;
43986;SDS011;29650;47.378;8.300;2023-02-18T11:44:17;1.30;;;1.20;;
43986;SDS011;29650;47.378;8.300;2023-02-18T11:46:55;2.63;;;1.40;;
43986;SDS011;29650;47.378;8.300;2023-02-18T11:49:24;3.45;;;1.58;;
43986;SDS011;29650;47.378;8.300;2023-02-18T11:51:51;1.75;;;1.30;;
43986;SDS011;29650;47.378;8.300;2023-02-18T11:54:23;4.30;;;1.60;;
43986;SDS011;29650;47.378;8.300;2023-02-18T11:56:56;7.45;;;3.03;;
43986;SDS011;29650;47.378;8.300;2023-02-18T11:59:26;2.90;;;1.50;;
43986;SDS011;29650;47.378;8.300;2023-02-18T12:01:59;1.92;;;1.42;;
43986;SDS011;29650;47.378;8.300;2023-02-18T12:04:32;1.40;;;1.30;;
43986;SDS011;29650;47.378;8.300;2023-02-18T12:07:10;1.60;;;1.45;;
43986;SDS011;29650;47.378;8.300;2023-02-18T12:09:43;2.70;;;1.10;;
43986;SDS011;29650;47.378;8.300;2023-02-18T12:12:14;5.40;;;1.30;;
43986;SDS011;29650;47.378;8.300;2023-02-18T12:14:44;2.10;;;1.50;;
43986;SDS011;29650;47.378;8.300;2023-02-18T12:17:20;4.05;;;1.00;;
43986;SDS011;29650;47.378;8.300;2023-02-18T12:20:09;2.75;;;1.90;;
43986;SDS011;29650;47.378;8.300;2023-02-18T12:22:47;3.03;;;1.77;;
43986;SDS011;29650;47.378;8.300;2023-02-18T12:25:23;1.50;;;1.00;;
43986;SDS011;29650;47.378;8.300;2023-02-18T12:28:06;1.50;;;1.15;;
43986;SDS011;29650;47.378;8.300;2023-02-18T12:31:04;1.80;;;1.10;;
43986;SDS011;29650;47.378;8.300;2023-02-18T12:33:43;1.20;;;0.80;;
43986;SDS011;29650;47.378;8.300;2023-02-18T12:36:23;1.00;;;0.70;;
43986;SDS011;29650;47.378;8.300;2023-02-18T12:39:00;1.13;;;0.98;;
43986;SDS011;29650;47.378;8.300;2023-02-18T12:41:39;1.33;;;1.08;;
43986;SDS011;29650;47.378;8.300;2023-02-18T12:44:28;3.08;;;1.35;;
43986;SDS011;29650;47.378;8.300;2023-02-18T12:47:05;1.60;;;1.30;;
43986;SDS011;29650;47.378;8.300;2023-02-18T12:49:57;2.40;;;1.08;;
43986;SDS011;29650;47.378;8.300;2023-02-18T12:52:45;2.30;;;0.85;;
43986;SDS011;29650;47.378;8.300;2023-02-18T12:55:31;2.35;;;1.08;;
43986;SDS011;29650;47.378;8.300;2023-02-18T12:58:11;2.17;;;1.05;;
43986;SDS011;29650;47.378;8.300;2023-02-18T13:00:50;1.27;;;1.10;;
43986;SDS011;29650;47.378;8.300;2023-02-18T13:06:22;1.30;;;0.90;;
43986;SDS011;29650;47.378;8.300;2023-02-18T13:09:05;1.77;;;1.20;;
43986;SDS011;29650;47.378;8.300;2023-02-18T13:11:41;2.53;;;0.95;;
43986;SDS011;29650;47.378;8.300;2023-02-18T13:14:18;1.70;;;0.90;;
43986;SDS011;29650;47.378;8.300;2023-02-18T13:16:50;1.42;;;0.80;;
43986;SDS011;29650;47.378;8.300;2023-02-18T13:19:20;2.55;;;1.00;;
43986;SDS011;29650;47.378;8.300;2023-02-18T13:21:50;1.00;;;0.82;;
43986;SDS011;29650;47.378;8.300;2023-02-18T13:24:22;1.67;;;1.10;;
43986;SDS011;29650;47.378;8.300;2023-02-18T13:26:57;1.80;;;1.10;;
43986;SDS011;29650;47.378;8.300;2023-02-18T13:29:32;3.35;;;1.30;;
43986;SDS011;29650;47.378;8.300;2023-02-18T13:32:08;2.10;;;0.90;;
43986;SDS011;29650;47.378;8.300;2023-02-18T13:34:44;1.67;;;1.00;;
43986;SDS011;29650;47.378;8.300;2023-02-18T13:37:18;1.60;;;1.00;;
43986;SDS011;29650;47.378;8.300;2023-02-18T13:39:52;1.13;;;1.00;;
43986;SDS011;29650;47.378;8.300;2023-02-18T13:47:59;2.10;;;1.00;;
43986;SDS011;29650;47.378;8.300;2023-02-18T13:50:28;2.50;;;1.20;;
43986;SDS011;29650;47.378;8.300;2023-02-18T13:55:51;0.85;;;0.77;;
43986;SDS011;29650;47.378;8.300;2023-02-18T13:58:22;1.40;;;1.00;;
43986;SDS011;29650;47.378;8.300;2023-02-18T14:00:53;1.98;;;1.20;;
43986;SDS011;29650;47.378;8.300;2023-02-18T14:03:34;1.58;;;1.08;;
43986;SDS011;29650;47.378;8.300;2023-02-18T14:06:16;6.45;;;1.20;;
43986;SDS011;29650;47.378;8.300;2023-02-18T14:08:44;1.90;;;1.00;;
43986;SDS011;29650;47.378;8.300;2023-02-18T14:14:15;1.38;;;1.08;;
43986;SDS011;29650;47.378;8.300;2023-02-18T14:17:28;2.25;;;1.13;;
43986;SDS011;29650;47.378;8.300;2023-02-18T14:23:07;3.85;;;0.98;;
43986;SDS011;29650;47.378;8.300;2023-02-18T14:25:38;1.20;;;0.65;;
43986;SDS011;29650;47.378;8.300;2023-02-18T14:31:18;1.83;;;0.90;;
43986;SDS011;29650;47.378;8.300;2023-02-18T14:33:58;1.45;;;1.02;;
43986;SDS011;29650;47.378;8.300;2023-02-18T14:36:48;2.22;;;1.20;;
43986;SDS011;29650;47.378;8.300;2023-02-18T14:39:27;1.88;;;1.20;;
43986;SDS011;29650;47.378;8.300;2023-02-18T14:42:02;1.95;;;1.10;;
43986;SDS011;29650;47.378;8.300;2023-02-18T14:44:41;3.05;;;1.00;;
43986;SDS011;29650;47.378;8.300;2023-02-18T14:47:24;1.30;;;1.00;;
43986;SDS011;29650;47.378;8.300;2023-02-18T14:50:00;1.33;;;1.00;;
43986;SDS011;29650;47.378;8.300;2023-02-18T14:52:30;1.00;;;0.88;;
43986;SDS011;29650;47.378;8.300;2023-02-18T14:55:01;1.08;;;0.90;;
43986;SDS011;29650;47.378;8.300;2023-02-18T14:57:32;1.48;;;0.88;;
43986;SDS011;29650;47.378;8.300;2023-02-18T15:00:04;1.67;;;0.98;;
43986;SDS011;29650;47.378;8.300;2023-02-18T15:02:39;1.60;;;1.00;;
43986;SDS011;29650;47.378;8.300;2023-02-18T15:05:12;1.27;;;1.10;;
43986;SDS011;29650;47.378;8.300;2023-02-18T15:07:40;3.53;;;0.70;;
43986;SDS011;29650;47.378;8.300;2023-02-18T15:10:13;1.70;;;0.73;;
43986;SDS011;29650;47.378;8.300;2023-02-18T15:12:40;0.77;;;0.60;;
43986;SDS011;29650;47.378;8.300;2023-02-18T15:15:08;0.88;;;0.32;;
43986;SDS011;29650;47.378;8.300;2023-02-18T15:17:42;0.80;;;0.47;;
43986;SDS011;29650;47.378;8.300;2023-02-18T15:20:12;0.77;;;0.55;;
43986;SDS011;29650;47.378;8.300;2023-02-18T15:22:40;0.50;;;0.47;;
43986;SDS011;29650;47.378;8.300;2023-02-18T15:25:09;1.48;;;0.70;;
43986;SDS011;29650;47.378;8.300;2023-02-18T15:27:40;1.13;;;0.70;;
43986;SDS011;29650;47.378;8.300;2023-02-18T15:30:18;0.57;;;0.55;;
43986;SDS011;29650;47.378;8.300;2023-02-18T15:32:49;1.77;;;0.70;;
43986;SDS011;29650;47.378;8.300;2023-02-18T15:35:18;0.82;;;0.52;;
43986;SDS011;29650;47.378;8.300;2023-02-18T15:37:51;1.02;;;0.70;;
43986;SDS011;29650;47.378;8.300;2023-02-18T15:40:20;1.23;;;0.60;;
43986;SDS011;29650;47.378;8.300;2023-02-18T15:45:22;0.65;;;0.52;;
43986;SDS011;29650;47.378;8.300;2023-02-18T15:47:55;1.48;;;0.60;;
43986;SDS011;29650;47.378;8.300;2023-02-18T15:50:24;1.23;;;0.88;;
43986;SDS011;29650;47.378;8.300;2023-02-18T15:52:54;3.70;;;0.95;;
43986;SDS011;29650;47.378;8.300;2023-02-18T15:55:26;1.25;;;0.98;;
43986;SDS011;29650;47.378;8.300;2023-02-18T15:57:59;1.67;;;0.70;;